Latest Coastal Weather Observations for Merimbula

IDN60701

Issued at 3:31 pm EST Thursday 29 June 2017 (issued every 10 minutes, with the page automatically refreshed every 10 minutes)

About coastal observations | Map of coastal stations | Coastal observations for NSW | Marine services | Other Formats
Station Details ID: 069147 Name: MERIMBULA AIRPORT AWS Lat: -36.91 Lon: 149.90 Height: 1.5 m
Data from the previous 72 hours. | See also: Recent months at Merimbula
Date/Time
EST
Temp
°C
Wind Pressure Rain since
9am
mm
Weather Cloud Vis
km
Sea
Height
m
Swell
Dir  Spd
kts
Gust
kts
hPa Trend Height
m
Period
s
Dir
29/03:30pm 16.9 W 5 7 1017.5 - 0.0 - Partly cloudy 10 - - - -
29/03:00pm 16.8 W 7 10 1017.5 - 0.0 - Cloudy 10 - - - -
29/02:30pm 17.1 WNW 7 10 1017.5 - 0.0 - Partly cloudy 10 - - - -
29/02:00pm 17.2 W 7 10 1017.6 - 0.0 - - 10 - - - -
29/01:30pm 17.0 WNW 10 14 1017.8 - 0.0 - - 10 - - - -
29/01:00pm 16.8 WSW 8 13 1018.1 - 0.0 - - 10 - - - -
29/12:30pm 16.4 WSW 8 13 1018.5 - 0.0 - - 10 - - - -
29/12:00pm 16.3 WSW 9 13 1019.2 - 0.0 - - 10 - - - -
29/11:30am 16.0 ESE 3 6 1019.8 - 0.0 - - 10 - - - -
29/11:00am 15.3 CALM 0 0 1020.2 - 0.0 - - 10 - - - -
29/10:30am 14.5 CALM 0 0 1020.5 - 0.0 - - 10 - - - -
29/10:00am 13.2 CALM 0 0 1020.8 - 0.0 - - 10 - - - -
29/09:30am 11.3 CALM 0 0 1021.0 - 0.0 - - 10 - - - -
29/09:00am 9.1 NW 2 4 1021.1 - 0.0 - - 10 - - - -
29/08:30am 7.1 NNW 3 5 1020.8 - 0.0 - - 10 - - - -
29/08:00am 5.8 NNW 4 6 1020.5 - 0.0 - - 10 - - - -
29/07:30am 6.0 NNW 6 8 1020.3 - 0.0 - - 10 - - - -
29/07:00am 5.0 NNW 6 7 1020.4 - 0.0 - - 10 - - - -
29/06:30am 4.8 NW 4 6 1020.7 - 0.0 - - 10 - - - -
29/06:00am 4.7 NNW 4 6 1020.8 - 0.0 - - 10 - - - -
29/05:30am 5.5 NW 7 9 1020.7 - 0.0 - - 10 - - - -
29/05:00am 5.1 NNW 7 8 1020.6 - 0.0 - - 10 - - - -
29/04:30am 4.3 NW 4 8 1020.4 - 0.0 - - 10 - - - -
29/04:00am 4.0 WNW 3 5 1020.3 - 0.0 - - 10 - - - -
29/03:30am 2.7 CALM 0 3 1020.5 - 0.0 - - 10 - - - -
29/03:00am 3.4 SW 4 5 1020.9 - 0.0 - - 10 - - - -
29/02:30am 3.4 CALM 0 0 1021.3 - 0.0 - - 10 - - - -
29/02:00am 5.3 WSW 4 6 1021.4 - 0.0 - - 10 - - - -
29/01:30am 5.7 NNW 5 7 1021.6 - 0.0 - - 10 - - - -
29/01:00am 6.2 NW 6 8 1021.7 - 0.0 - - 10 - - - -
29/12:30am 6.2 NW 5 7 1021.9 - 0.0 - - 10 - - - -
29/12:00am 6.4 NW 5 7 1021.9 - 0.0 - - 10 - - - -
 
Date/Time
EST
Temp
°C
Wind Pressure Rain since
9am
mm
Weather Cloud Vis
km
Sea
Height
m
Swell
Dir  Spd
kts
Gust
kts
hPa Trend Height
m
Period
s
Dir
28/11:30pm 6.2 NW 5 8 1022.2 - 0.0 - - 10 - - - -
28/11:00pm 6.5 NNW 7 9 1022.2 - 0.0 - - 10 - - - -
28/10:30pm 6.1 WNW 5 8 1022.2 - 0.0 - - 10 - - - -
28/10:00pm 4.8 CALM 0 0 1022.2 - 0.0 - - 10 - - - -
28/09:30pm 5.4 W 5 7 1022.3 - 0.0 - - 10 - - - -
28/09:00pm 6.0 SW 4 7 1022.4 - 0.0 - - 10 - - - -
28/08:30pm 6.3 SSW 5 6 1022.2 - 0.0 - - 10 - - - -
28/08:00pm 6.8 CALM 0 0 1022.3 - 0.0 - - 10 - - - -
28/07:30pm 6.9 WNW 5 5 1022.3 - 0.0 - - 10 - - - -
28/07:00pm 7.8 NW 4 5 1022.1 - 0.0 - - 10 - - - -
28/06:30pm 8.5 NW 7 8 1021.9 - 0.0 - - 10 - - - -
28/06:00pm 8.5 NW 5 6 1021.5 - 0.0 - - 10 - - - -
28/05:30pm 8.8 CALM 0 0 1021.3 - 0.0 - - 10 - - - -
28/05:00pm 10.4 SW 5 6 1020.9 - 0.0 - - 10 - - - -
28/04:30pm 12.7 SSW 5 7 1020.8 - 0.0 - - 10 - - - -
28/04:00pm 14.1 SSW 7 9 1020.8 - 0.0 - Partly cloudy 10 - - - -
28/03:30pm 14.8 SSW 7 11 1020.6 - 0.0 - Cloudy 10 - - - -
28/03:00pm 14.8 SSW 8 11 1020.6 - 0.0 - Mostly cloudy 10 - - - -
28/02:30pm 15.8 SSW 5 11 1020.7 - 0.0 - Partly cloudy 10 - - - -
28/02:00pm 14.4 SSW 6 10 1020.9 - 0.0 - Partly cloudy 10 - - - -
28/01:30pm 14.0 SW 4 6 1021.3 - 0.0 - Partly cloudy 10 - - - -
28/01:00pm 13.7 SW 4 6 1021.5 - 0.0 - Cloudy 10 - - - -
28/12:30pm 13.9 SSW 2 4 1021.6 - 0.0 - Partly cloudy 10 - - - -
28/12:00pm 13.5 SSW 2 4 1022.1 - 0.0 - Cloudy 10 - - - -
28/11:30am 13.0 SW 3 4 1022.6 - 0.0 - Partly cloudy 10 - - - -
28/11:00am 13.0 WSW 4 7 1022.9 - 0.0 - Partly cloudy 10 - - - -
28/10:30am 11.3 CALM 0 0 1023.0 - 0.0 - Partly cloudy 10 - - - -
28/10:00am 10.4 S 3 5 1022.8 - 0.0 - Cloudy 10 - - - -
28/09:30am 9.5 SSW 2 4 1022.9 - 0.0 - Partly cloudy 10 - - - -
28/09:00am 8.5 SSW 3 5 1022.9 - 0.0 - Cloudy 10 - - - -
28/08:30am 8.1 CALM 0 0 1023.0 - 0.0 - Partly cloudy 10 - - - -
28/08:00am 7.7 SW 4 6 1022.7 - 0.0 - - 10 - - - -
28/07:30am 7.6 CALM 0 0 1022.6 - 0.0 - Partly cloudy 10 - - - -
28/07:00am 7.6 SW 3 4 1022.5 - 0.0 - Partly cloudy 10 - - - -
28/06:30am 7.7 SSW 3 5 1022.5 - 0.0 - Partly cloudy 10 - - - -
28/06:00am 7.7 SSW 5 6 1022.4 - 0.0 - Cloudy 10 - - - -
28/05:30am 7.5 S 2 4 1022.2 - 0.0 - - 10 - - - -
28/05:00am 7.8 SSW 3 5 1022.3 - 0.0 - Partly cloudy 10 - - - -
28/04:30am 7.7 SSW 3 4 1022.4 - 0.0 - Partly cloudy 10 - - - -
28/04:00am 7.4 CALM 0 5 1022.4 - 0.0 - Partly cloudy 10 - - - -
28/03:30am 7.3 SSW 4 5 1022.6 - 0.0 - Partly cloudy 10 - - - -
28/03:00am 6.7 CALM 0 1 1022.9 - 0.0 - Cloudy 10 - - - -
28/02:30am 7.1 SW 4 5 1023.1 - 0.0 - Partly cloudy 10 - - - -
28/02:00am 7.0 SW 4 6 1023.2 - 0.0 - - 10 - - - -
28/01:30am 6.8 CALM 0 0 1023.3 - 0.0 - - 10 - - - -
28/01:00am 6.7 CALM 0 0 1023.3 - 0.0 - - 10 - - - -
28/12:30am 6.4 CALM 0 0 1023.5 - 0.0 - Partly cloudy 10 - - - -
28/12:00am 6.4 CALM 0 0 1023.8 - 0.0 - Mostly cloudy 10 - - - -
 
Date/Time
EST
Temp
°C
Wind Pressure Rain since
9am
mm
Weather Cloud Vis
km
Sea
Height
m
Swell
Dir  Spd
kts
Gust
kts
hPa Trend Height
m
Period
s
Dir
27/11:30pm 6.5 CALM 0 0 1024.2 - 0.0 - - 10 - - - -
27/11:00pm 6.4 CALM 0 0 1024.3 - 0.0 - - 10 - - - -
27/10:30pm 6.0 CALM 0 0 1024.3 - 0.0 - - 10 - - - -
27/10:00pm 6.0 CALM 0 0 1024.4 - 0.0 - - 10 - - - -
27/09:30pm 6.2 CALM 0 0 1024.4 - 0.0 - - 10 - - - -
27/09:00pm 6.7 CALM 0 0 1024.6 - 0.0 - Cloudy 10 - - - -
27/08:30pm 6.9 CALM 0 0 1024.9 - 0.0 - - 10 - - - -
27/08:00pm 6.8 CALM 0 0 1024.8 - 0.0 - - 10 - - - -
27/07:30pm 7.3 CALM 0 0 1024.7 - 0.0 - - 10 - - - -
27/07:00pm 8.0 CALM 0 0 1024.7 - 0.0 - - 10 - - - -
27/06:30pm 8.8 CALM 0 0 1024.6 - 0.0 - - 10 - - - -
27/06:00pm 8.8 CALM 0 0 1024.5 - 0.0 - Cloudy 10 - - - -
27/05:30pm 9.6 CALM 0 0 1024.5 - 0.0 - Partly cloudy 10 - - - -
27/05:00pm 11.1 NNW 3 6 1024.2 - 0.0 - Partly cloudy 10 - - - -
27/04:30pm 12.1 N 4 6 1024.2 - 0.0 - - 10 - - - -
27/04:00pm 12.4 NNE 5 7 1024.0 - 0.0 - - 10 - - - -
27/03:30pm 12.8 NE 6 9 1024.0 - 0.0 - - 10 - - - -
27/03:00pm 14.7 NE 5 9 1024.2 - 0.0 - - 10 - - - -
27/02:30pm 13.2 NE 5 8 1024.3 - 0.0 - - 10 - - - -
27/02:00pm 14.1 ENE 7 9 1024.2 - 0.0 - - 10 - - - -
27/01:30pm 14.0 ENE 6 9 1024.6 - 0.0 - - 10 - - - -
27/01:00pm 14.3 E 5 8 1024.9 - 0.0 - - 10 - - - -
27/12:30pm 14.6 E 5 7 1025.3 - 0.0 - - 10 - - - -
27/12:00pm 14.9 ENE 5 7 1025.7 - 0.0 - - 10 - - - -
27/11:30am 14.7 E 4 7 1026.1 - 0.0 - - 10 - - - -
27/11:00am 14.8 CALM 0 0 1026.6 - 0.0 - - 10 - - - -
27/10:30am 13.3 CALM 0 0 1026.9 - 0.0 - - 10 - - - -
27/10:00am 11.9 CALM 0 0 1027.1 - 0.0 - - 10 - - - -
27/09:30am 10.3 CALM 0 0 1027.2 - 0.0 - - 10 - - - -
27/09:00am 8.4 CALM 0 0 1027.3 - 0.0 - - 10 - - - -
27/08:30am 6.3 CALM 0 0 1027.2 - 0.0 - Partly cloudy 10 - - - -
27/08:00am 3.1 CALM 0 0 1027.0 - 0.0 - - 10 - - - -
27/07:30am 2.4 CALM 0 0 1026.9 - 0.0 - - 10 - - - -
27/07:00am 3.4 W 1 4 1026.8 - 0.0 - - 10 - - - -
27/06:30am 4.3 NW 7 8 1026.7 - 0.0 - - 10 - - - -
27/06:00am 3.9 NW 4 6 1026.6 - 0.0 - - 10 - - - -
27/05:30am 4.0 WNW 4 5 1026.4 - 0.0 - - 10 - - - -
27/05:00am 3.6 CALM 0 0 1026.1 - 0.0 - - 10 - - - -
27/04:30am 5.4 NW 5 6 1026.0 - 0.0 - - 10 - - - -
27/04:00am 5.8 W 5 6 1026.1 - 0.0 - - 10 - - - -
27/03:30am 6.5 WNW 6 8 1026.0 - 0.0 - - 10 - - - -
27/03:00am 6.8 NW 7 8 1026.1 - 0.0 - - 10 - - - -
27/02:30am 7.4 WNW 7 9 1025.9 - 0.0 - - 10 - - - -
27/02:00am 7.6 NW 7 9 1025.8 - 0.0 - - 10 - - - -
27/01:30am 7.4 NW 7 9 1025.7 - 0.0 - - 10 - - - -
27/01:00am 7.4 NW 6 9 1025.5 - 0.0 - - 10 - - - -
27/12:30am 7.3 WNW 5 8 1025.8 - 0.0 - - 10 - - - -
27/12:00am 7.0 NNW 5 7 1025.9 - 0.0 - - 10 - - - -
 
Date/Time
EST
Temp
°C
Wind Pressure Rain since
9am
mm
Weather Cloud Vis
km
Sea
Height
m
Swell
Dir  Spd
kts
Gust
kts
hPa Trend Height
m
Period
s
Dir
26/11:30pm 5.7 W 1 5 1026.1 - 0.0 - - 10 - - - -
26/11:00pm 5.4 CALM 0 0 1026.2 - 0.0 - - 10 - - - -
26/10:30pm 5.0 CALM 0 0 1026.0 - 0.0 - - 10 - - - -
26/10:00pm 4.4 CALM 0 0 1025.5 - 0.0 - - 10 - - - -
26/09:30pm 5.1 CALM 0 0 1025.6 - 0.0 - - 10 - - - -
26/09:00pm 5.5 WSW 1 5 1025.2 - 0.0 - - 10 - - - -
26/08:30pm 5.4 WNW 4 6 1025.3 - 0.0 - - 10 - - - -
26/08:00pm 5.3 CALM 0 0 1025.1 - 0.0 - - 10 - - - -
26/07:30pm 6.7 NW 2 5 1024.8 - 0.0 - - 10 - - - -
26/07:00pm 7.1 NW 4 4 1024.5 - 0.0 - - 10 - - - -
26/06:30pm 7.7 SW 3 5 1024.1 - 0.0 - Partly cloudy 10 - - - -
26/06:00pm 9.4 WSW 4 5 1023.7 - 0.0 - - 10 - - - -
26/05:30pm 11.4 SSW 4 6 1023.4 - 0.0 - Partly cloudy 10 - - - -
26/05:00pm 12.7 SSW 4 6 1023.0 - 0.0 - Cloudy 10 - - - -
26/04:30pm 14.1 SSW 7 11 1022.6 - 0.0 - Cloudy 10 - - - -
26/04:00pm 15.0 S 5 7 1022.3 - 0.0 - Partly cloudy 10 - - - -

Other Formats:

Comma delimited format used in spreadsheet applications
http://www.bom.gov.au/fwo/IDN60701/IDN60701.95929.axf

JavaScript Object Notation format (JSON) in row-major order
http://www.bom.gov.au/fwo/IDN60701/IDN60701.95929.json